createdAt,value
2019-03-26T00:09:19.260Z,48.20
2019-03-26T00:19:25.533Z,48.20
2019-03-26T00:29:31.890Z,48.20
2019-03-26T00:39:38.303Z,48.20
2019-03-26T00:49:44.715Z,48.10
2019-03-26T00:59:51.142Z,48.10
2019-03-26T01:09:57.394Z,48.10
2019-03-26T01:20:03.805Z,48.20
2019-03-26T01:30:10.290Z,48.20
2019-03-26T01:40:16.544Z,48.90
2019-03-26T01:50:22.924Z,48.20
2019-03-26T02:00:29.254Z,48.30
2019-03-26T02:10:38.315Z,48.30
2019-03-26T02:20:44.789Z,48.30
2019-03-26T02:30:51.247Z,48.30
2019-03-26T02:40:57.573Z,48.30
2019-03-26T02:51:03.848Z,48.20
2019-03-26T03:01:10.141Z,48.30
2019-03-26T03:11:16.426Z,48.30
2019-03-26T03:21:22.698Z,48.40
2019-03-26T03:31:28.991Z,48.40
2019-03-26T03:41:35.375Z,48.40
2019-03-26T03:51:41.628Z,48.40
2019-03-26T04:01:48.111Z,48.40
2019-03-26T04:11:54.451Z,48.40
2019-03-26T04:22:00.848Z,48.40
2019-03-26T04:32:07.262Z,48.50
2019-03-26T04:42:13.402Z,48.40
2019-03-26T04:52:19.812Z,48.40
2019-03-26T05:02:26.193Z,48.50
2019-03-26T05:12:32.418Z,48.40
2019-03-26T05:22:38.768Z,48.30
2019-03-26T05:32:45.248Z,48.40
2019-03-26T05:42:51.557Z,48.40
2019-03-26T05:52:57.773Z,48.40
2019-03-26T06:03:04.139Z,48.40
2019-03-26T06:13:10.503Z,48.40
2019-03-26T06:23:16.692Z,48.40
2019-03-26T06:33:23.140Z,48.40
2019-03-26T06:43:29.448Z,49.00
2019-03-26T06:53:35.873Z,48.40
2019-03-26T07:03:42.186Z,48.40
2019-03-26T07:13:48.607Z,48.40
2019-03-26T07:23:54.937Z,48.40
2019-03-26T07:34:01.162Z,48.40
2019-03-26T07:44:07.569Z,48.40
2019-03-26T07:54:13.797Z,48.50
2019-03-26T08:04:20.114Z,48.40
2019-03-26T08:14:26.596Z,48.40
2019-03-26T08:24:34.202Z,48.40
2019-03-26T08:34:40.578Z,48.40
2019-03-26T08:44:46.992Z,48.40
2019-03-26T08:54:53.354Z,48.40
2019-03-26T09:05:01.993Z,48.30
2019-03-26T09:15:14.160Z,48.40
2019-03-26T09:25:19.206Z,48.30
2019-03-26T09:35:26.532Z,48.30
2019-03-26T09:45:32.856Z,48.30
2019-03-26T09:55:39.220Z,48.30
2019-03-26T10:05:45.460Z,48.30
2019-03-26T10:15:51.803Z,48.30
2019-03-26T10:25:58.138Z,48.20
2019-03-26T10:36:04.528Z,48.20
2019-03-26T10:46:10.793Z,48.30
2019-03-26T10:56:17.099Z,48.20
2019-03-26T11:06:23.398Z,48.30
2019-03-26T11:16:29.647Z,48.40
2019-03-26T11:26:37.965Z,48.30
2019-03-26T11:36:44.260Z,48.20
2019-03-26T11:46:50.542Z,48.30
2019-03-26T11:56:56.677Z,48.20
2019-03-26T12:07:03.039Z,48.30
2019-03-26T12:17:09.451Z,48.20
2019-03-26T12:27:15.863Z,48.20
2019-03-26T12:37:22.227Z,48.20
2019-03-26T12:47:28.529Z,48.10
2019-03-26T12:57:34.863Z,48.10
2019-03-26T13:07:41.204Z,48.20
2019-03-26T13:17:47.667Z,48.10
2019-03-26T13:27:54.005Z,48.20
2019-03-26T13:38:01.279Z,48.20
2019-03-26T13:48:07.703Z,48.10
2019-03-26T13:58:14.018Z,48.10
2019-03-26T14:08:20.335Z,48.10
2019-03-26T14:18:26.652Z,48.10
2019-03-26T14:28:32.795Z,48.10
2019-03-26T14:38:39.280Z,48.10
2019-03-26T14:48:45.889Z,48.10
2019-03-26T14:58:52.174Z,48.10
2019-03-26T15:09:00.209Z,48.20
2019-03-26T15:19:06.423Z,48.10
2019-03-26T15:29:12.808Z,48.20
2019-03-26T15:39:19.051Z,48.10
2019-03-26T15:49:25.374Z,48.10
2019-03-26T15:59:31.791Z,48.10
2019-03-26T16:09:38.276Z,48.20
2019-03-26T16:19:44.578Z,48.10
2019-03-26T16:29:53.915Z,48.10
2019-03-26T16:40:00.363Z,48.00
2019-03-26T16:50:07.168Z,48.00
2019-03-26T17:00:13.475Z,48.00
2019-03-26T17:10:19.966Z,48.10
2019-03-26T17:20:28.150Z,48.00
2019-03-26T17:30:34.671Z,48.00
2019-03-26T17:40:41.168Z,48.10
2019-03-26T17:50:47.507Z,48.10
2019-03-26T18:00:54.112Z,48.10
2019-03-26T18:11:00.447Z,48.10
2019-03-26T18:21:07.029Z,48.10
2019-03-26T18:31:13.337Z,48.10
2019-03-26T18:41:19.555Z,48.10
2019-03-26T18:51:25.973Z,48.10
2019-03-26T19:01:32.141Z,48.10
2019-03-26T19:11:38.586Z,48.10
2019-03-26T19:21:44.966Z,48.10
2019-03-26T19:31:53.465Z,48.20
2019-03-26T19:41:59.846Z,48.20
2019-03-26T19:52:06.229Z,48.20
2019-03-26T20:02:12.895Z,48.20
2019-03-26T20:12:19.177Z,48.20
2019-03-26T20:22:25.486Z,48.20
2019-03-26T20:32:32.898Z,48.20
2019-03-26T20:42:39.365Z,48.10
2019-03-26T20:52:45.643Z,48.20
2019-03-26T21:02:52.095Z,48.20
2019-03-26T21:12:58.690Z,48.10
2019-03-26T21:23:04.849Z,48.30
2019-03-26T21:33:12.185Z,48.10
2019-03-26T21:43:18.557Z,48.20
2019-03-26T21:53:24.974Z,48.30
2019-03-26T22:03:31.192Z,48.20
2019-03-26T22:13:37.443Z,48.20
2019-03-26T22:23:43.776Z,48.20
2019-03-26T22:33:50.295Z,48.30
2019-03-26T22:43:56.565Z,48.30
2019-03-26T22:54:05.120Z,48.20
2019-03-26T23:04:11.399Z,48.20
2019-03-26T23:14:17.756Z,48.20
2019-03-26T23:24:23.998Z,48.20
2019-03-26T23:34:30.217Z,48.10
2019-03-26T23:44:36.460Z,48.20
2019-03-26T23:54:43.749Z,48.20
